aviador You're here:

MMMX Decoded Metar

MEXICO CITY in MEXICO
Report Time2017-10-22 05:43:00
UTC Time2017-10-22 06:23:57
Flight Rules vfr VFR
Wind310° at 03 kt
W.Decomp.*RWY 23: 0.8 kt HW 2.9 kt RCW
W.Rank310° ranks 19
Current wind is below 310° avg. (6.2)
Visibility9999 m
Phenomena:N/A
Clouds:Scattered 080 Hf
Expected CloudBase > 4,800 ft AGL from Temp-Dew spread
CeilingNone
Temp18°C (ISA +18)
Dew Point06°C (46% RH)
AAT16.0°C
QNH1027 hPa
Density Alt9,035 ft
Elevation7,343 ft
Report Wrong Elevation
Raw Report
METAR MMMX 220543Z 31003KT 12SM SCT080 18/06 A3032 NOSIG RMK SLP075
52008 904 8/030=

Extra information for MMMX:More info

Metar Taf Metar & Taf Last 4 Metars F.Rules Stats Wind Profile Meteogram Temp Stats Airport Information Weather charts Add Link Nearby VenuesMetar ALERT Operation Metar Decoded Social comments